Time;durP1;ratioP1;P1;durP2;ratioP2;P2;SDS_P1;SDS_P2;PMS_P1;PMS_P2;Temp;Humidity;BMP_temperature;BMP_pressure;BME280_temperature;BME280_humidity;BME280_pressure;Samples;Min_cycle;Max_cycle;Signal;HPM_P1;HPM_P2
2022/03/26 00:00:06;;;;;;;87.30;32.08;;;3.90;99.90;;;;;;5012535;28;20080;-71
2022/03/26 00:02:31;;;;;;;82.22;31.25;;;3.90;99.90;;;;;;5009808;28;20045;-72
2022/03/26 00:04:57;;;;;;;80.97;31.05;;;3.90;99.90;;;;;;5007876;28;20812;-72
2022/03/26 00:07:23;;;;;;;85.25;30.92;;;3.80;99.90;;;;;;5013698;28;20057;-72
2022/03/26 00:09:48;;;;;;;81.93;30.83;;;3.90;99.90;;;;;;5020488;28;20026;-72
2022/03/26 00:12:14;;;;;;;81.75;30.92;;;3.80;99.90;;;;;;5026282;28;20043;-72
2022/03/26 00:14:40;;;;;;;80.43;30.27;;;3.70;99.90;;;;;;5023681;28;20087;-72
2022/03/26 00:17:05;;;;;;;78.10;29.92;;;3.60;99.90;;;;;;5013336;28;20484;-69
2022/03/26 00:19:31;;;;;;;85.13;29.90;;;3.40;99.90;;;;;;5007963;28;20376;-72
2022/03/26 00:21:57;;;;;;;84.85;30.80;;;3.40;99.90;;;;;;5007873;28;20028;-72
2022/03/26 00:24:22;;;;;;;85.97;31.42;;;3.40;99.90;;;;;;5009620;28;20041;-70
2022/03/26 00:26:48;;;;;;;86.93;32.30;;;3.40;99.90;;;;;;5019025;28;20465;-73
2022/03/26 00:29:14;;;;;;;83.57;31.38;;;3.40;99.90;;;;;;5014703;28;20058;-73
2022/03/26 00:31:40;;;;;;;81.53;30.40;;;3.30;99.90;;;;;;5012885;28;20022;-73
2022/03/26 00:34:07;;;;;;;81.45;29.50;;;3.30;99.90;;;;;;5012640;28;20081;-69
2022/03/26 00:36:33;;;;;;;82.70;29.52;;;3.30;99.90;;;;;;5011344;28;20135;-71
2022/03/26 00:38:59;;;;;;;84.07;31.75;;;3.20;99.90;;;;;;5023410;28;20494;-72
2022/03/26 00:41:25;;;;;;;80.05;30.63;;;3.20;99.90;;;;;;5023397;28;20038;-72
2022/03/26 00:43:51;;;;;;;89.15;31.80;;;3.10;99.90;;;;;;5012091;28;20073;-72
2022/03/26 00:46:17;;;;;;;86.85;31.75;;;3.00;99.90;;;;;;5012169;28;20737;-72
2022/03/26 00:48:43;;;;;;;87.55;32.25;;;2.80;99.90;;;;;;5022623;28;20068;-71
2022/03/26 00:51:09;;;;;;;88.38;31.40;;;2.80;99.90;;;;;;5011994;28;20388;-69
2022/03/26 00:53:35;;;;;;;86.20;32.42;;;2.70;99.90;;;;;;5012547;28;20168;-71
2022/03/26 00:56:00;;;;;;;94.35;32.92;;;2.70;99.90;;;;;;5012767;28;20531;-72
2022/03/26 00:58:26;;;;;;;93.78;33.30;;;2.80;99.90;;;;;;5011624;28;20026;-72
2022/03/26 01:00:52;;;;;;;94.07;31.40;;;2.80;99.90;;;;;;5016696;28;20024;-73
2022/03/26 01:03:18;;;;;;;82.95;31.17;;;2.90;99.90;;;;;;5024475;28;20034;-72
2022/03/26 01:05:44;;;;;;;89.70;31.17;;;2.80;99.90;;;;;;5014492;28;20096;-72
2022/03/26 01:08:10;;;;;;;78.28;29.00;;;2.70;99.90;;;;;;5011997;28;20030;-69
2022/03/26 01:10:36;;;;;;;88.35;29.98;;;2.70;99.90;;;;;;5024793;28;20038;-72
2022/03/26 01:13:03;;;;;;;80.95;30.10;;;2.70;99.90;;;;;;5030308;28;20049;-71
2022/03/26 01:15:29;;;;;;;83.93;30.88;;;2.70;99.90;;;;;;5010253;28;20026;-72
2022/03/26 01:17:55;;;;;;;94.45;32.13;;;2.70;99.90;;;;;;5015892;28;20113;-73
2022/03/26 01:20:21;;;;;;;84.28;31.00;;;2.60;99.90;;;;;;5010914;28;20481;-72
2022/03/26 01:22:47;;;;;;;85.57;31.15;;;2.60;99.90;;;;;;5011649;28;20045;-72
2022/03/26 01:25:13;;;;;;;89.13;31.90;;;2.60;99.90;;;;;;5011129;28;20034;-70
2022/03/26 01:27:39;;;;;;;87.88;31.70;;;2.50;99.90;;;;;;5012262;28;20050;-72
2022/03/26 01:30:06;;;;;;;83.18;28.75;;;2.30;99.90;;;;;;5011733;28;20056;-72
2022/03/26 01:32:32;;;;;;;76.95;28.50;;;2.20;99.90;;;;;;5011254;28;20030;-72
2022/03/26 01:34:58;;;;;;;67.40;25.08;;;2.40;99.90;;;;;;5012022;28;20041;-72
2022/03/26 01:37:24;;;;;;;76.50;26.42;;;2.60;99.90;;;;;;5010772;28;20510;-72
2022/03/26 01:39:54;;;;;;;79.97;29.83;;;2.60;99.90;;;;;;5011411;28;20038;-72
2022/03/26 01:42:20;;;;;;;57.13;20.52;;;2.50;99.90;;;;;;5011840;28;20120;-72
2022/03/26 01:44:46;;;;;;;69.90;25.70;;;2.50;99.90;;;;;;5022601;28;20038;-72
2022/03/26 01:47:12;;;;;;;72.78;25.38;;;2.40;99.90;;;;;;5011422;28;20037;-69
2022/03/26 01:49:38;;;;;;;83.30;30.10;;;2.60;99.90;;;;;;5021782;28;20038;-73
2022/03/26 01:52:07;;;;;;;80.32;30.02;;;2.60;99.90;;;;;;5019887;28;20105;-73
2022/03/26 01:54:33;;;;;;;74.70;26.60;;;2.30;99.90;;;;;;5017160;28;20033;-72
2022/03/26 01:56:59;;;;;;;82.80;28.60;;;2.20;99.90;;;;;;5011218;28;20026;-72
2022/03/26 01:59:27;;;;;;;78.85;28.75;;;2.30;99.90;;;;;;5010250;28;20468;-70
2022/03/26 02:01:53;;;;;;;79.65;29.65;;;2.20;99.90;;;;;;5011087;28;20492;-71
2022/03/26 02:04:19;;;;;;;77.15;28.52;;;2.00;99.90;;;;;;5009343;28;20420;-72
2022/03/26 02:06:45;;;;;;;79.88;27.98;;;1.90;99.90;;;;;;5009278;28;20038;-72
2022/03/26 02:09:14;;;;;;;73.82;27.05;;;1.90;99.90;;;;;;5011832;28;20142;-72
2022/03/26 02:11:42;;;;;;;82.30;30.02;;;2.00;99.90;;;;;;5011642;28;20029;-73
2022/03/26 02:14:09;;;;;;;78.60;28.23;;;2.00;99.90;;;;;;5012646;28;20034;-72
2022/03/26 02:16:36;;;;;;;77.50;28.65;;;1.90;99.90;;;;;;5013496;28;20034;-72
2022/03/26 02:19:06;;;;;;;83.32;29.88;;;1.90;99.90;;;;;;5010839;28;20119;-73
2022/03/26 02:21:34;;;;;;;87.03;28.08;;;2.00;99.90;;;;;;5009935;28;20999;-73
2022/03/26 02:24:01;;;;;;;79.50;29.08;;;1.80;99.90;;;;;;5010847;28;20491;-72
2022/03/26 02:26:27;;;;;;;66.75;24.05;;;1.80;99.90;;;;;;5009852;28;20050;-72
2022/03/26 02:28:54;;;;;;;77.82;26.92;;;1.80;99.90;;;;;;5010496;28;20048;-72
2022/03/26 02:31:20;;;;;;;88.38;30.42;;;1.90;99.90;;;;;;5010365;28;20034;-73
2022/03/26 02:33:46;;;;;;;75.28;26.90;;;1.80;99.90;;;;;;4996453;28;20034;-73
2022/03/26 02:36:12;;;;;;;68.80;23.33;;;1.70;99.90;;;;;;5003560;28;20104;-73
2022/03/26 02:38:38;;;;;;;71.63;24.83;;;1.70;99.90;;;;;;5010022;28;20041;-71
2022/03/26 02:41:05;;;;;;;70.18;25.70;;;1.80;99.90;;;;;;5010702;28;20034;-72
2022/03/26 02:43:31;;;;;;;76.60;27.05;;;1.80;99.90;;;;;;5009102;28;20113;-72
2022/03/26 02:45:56;;;;;;;77.68;28.63;;;1.90;99.90;;;;;;5010899;28;20105;-73
2022/03/26 02:48:22;;;;;;;74.40;28.00;;;1.70;99.90;;;;;;5008877;28;20042;-73
2022/03/26 02:50:48;;;;;;;75.70;26.63;;;1.60;99.90;;;;;;5010433;28;20030;-73
2022/03/26 02:53:14;;;;;;;74.45;26.25;;;1.60;99.90;;;;;;5009329;28;20565;-69
2022/03/26 02:55:41;;;;;;;64.10;23.55;;;1.60;99.90;;;;;;5009796;28;20792;-73
2022/03/26 02:58:08;;;;;;;70.75;22.75;;;1.50;99.90;;;;;;5008738;28;20029;-73
2022/03/26 03:00:35;;;;;;;66.68;23.83;;;1.50;99.90;;;;;;5007098;28;20041;-73
2022/03/26 03:03:01;;;;;;;62.50;21.98;;;1.60;99.90;;;;;;5009644;28;20026;-72
2022/03/26 03:05:27;;;;;;;64.93;22.52;;;1.60;99.90;;;;;;5009308;28;20046;-72
2022/03/26 03:07:53;;;;;;;67.45;23.08;;;1.70;99.90;;;;;;5010379;28;20060;-72
2022/03/26 03:10:20;;;;;;;65.03;23.48;;;1.80;99.90;;;;;;5008884;28;20030;-69
2022/03/26 03:12:47;;;;;;;64.85;21.35;;;1.90;99.90;;;;;;5005352;28;20477;-71
2022/03/26 03:15:16;;;;;;;63.90;21.77;;;2.00;99.90;;;;;;4990828;28;20118;-72
2022/03/26 03:17:42;;;;;;;74.78;26.27;;;2.20;99.90;;;;;;4990107;28;20022;-73
2022/03/26 03:20:09;;;;;;;79.15;27.02;;;2.30;99.90;;;;;;5003624;28;20484;-72
2022/03/26 03:22:36;;;;;;;68.40;26.98;;;2.10;99.90;;;;;;5009065;28;20077;-73
2022/03/26 03:25:03;;;;;;;65.43;24.08;;;1.90;99.90;;;;;;5010281;28;20380;-73
2022/03/26 03:27:29;;;;;;;73.25;23.90;;;1.70;99.90;;;;;;5008408;28;20476;-72
2022/03/26 03:29:54;;;;;;;72.30;24.58;;;1.70;99.90;;;;;;5010066;28;20045;-73
2022/03/26 03:32:20;;;;;;;74.72;24.90;;;1.60;99.90;;;;;;5008999;28;20030;-70
2022/03/26 03:34:46;;;;;;;69.07;23.35;;;1.50;99.90;;;;;;5010187;28;20109;-73
2022/03/26 03:37:11;;;;;;;68.63;23.67;;;1.50;99.90;;;;;;5009651;28;20100;-72
2022/03/26 03:39:37;;;;;;;70.30;24.38;;;1.40;99.90;;;;;;5009363;28;20220;-74
2022/03/26 03:42:04;;;;;;;70.80;25.85;;;1.50;99.90;;;;;;5010269;28;20391;-72
2022/03/26 03:44:30;;;;;;;74.03;25.70;;;1.40;99.90;;;;;;5009174;28;20029;-71
2022/03/26 03:46:56;;;;;;;71.38;24.50;;;1.20;99.90;;;;;;5009824;28;20412;-72
2022/03/26 03:49:22;;;;;;;67.13;22.98;;;1.20;99.90;;;;;;5009071;28;20021;-73
2022/03/26 03:51:48;;;;;;;70.43;24.70;;;1.20;99.90;;;;;;5008115;28;20045;-72
2022/03/26 03:54:14;;;;;;;61.95;22.42;;;1.30;99.90;;;;;;5008654;28;20440;-72
2022/03/26 03:56:40;;;;;;;63.67;22.67;;;1.30;99.90;;;;;;5009008;28;20061;-73
2022/03/26 03:59:06;;;;;;;65.32;22.05;;;1.30;99.90;;;;;;5008714;28;20022;-72
2022/03/26 04:01:32;;;;;;;68.07;23.45;;;1.20;99.90;;;;;;5008443;28;20457;-73
2022/03/26 04:03:58;;;;;;;71.57;24.85;;;1.30;99.90;;;;;;5010951;28;20061;-72
2022/03/26 04:06:24;;;;;;;72.05;24.00;;;1.40;99.90;;;;;;5012739;28;20133;-72
2022/03/26 04:08:50;;;;;;;71.30;24.65;;;1.30;99.90;;;;;;5013526;28;20500;-73
2022/03/26 04:11:16;;;;;;;66.53;21.90;;;1.20;99.90;;;;;;5013520;28;20060;-71
2022/03/26 04:13:41;;;;;;;62.72;21.30;;;1.20;99.90;;;;;;5012624;28;20150;-72
2022/03/26 04:16:07;;;;;;;62.55;22.13;;;1.20;99.90;;;;;;5013280;28;20451;-72
2022/03/26 04:18:34;;;;;;;58.70;21.67;;;1.10;99.90;;;;;;5011968;28;20041;-73
2022/03/26 04:21:00;;;;;;;70.03;23.90;;;1.20;99.90;;;;;;5014098;28;20083;-73
2022/03/26 04:23:26;;;;;;;69.18;23.75;;;1.10;99.90;;;;;;5012053;28;20460;-72
2022/03/26 04:25:52;;;;;;;64.18;23.80;;;1.10;99.90;;;;;;5016532;28;20056;-73
2022/03/26 04:28:18;;;;;;;65.80;21.80;;;1.10;99.90;;;;;;5012798;28;20033;-72
2022/03/26 04:30:44;;;;;;;58.65;22.98;;;1.10;99.90;;;;;;5015567;28;20042;-73
2022/03/26 04:33:10;;;;;;;61.10;22.17;;;1.10;99.90;;;;;;5026601;28;20041;-72
2022/03/26 04:35:36;;;;;;;78.25;23.65;;;1.00;99.90;;;;;;5019036;28;20049;-71
2022/03/26 04:38:02;;;;;;;67.43;22.23;;;1.00;99.90;;;;;;5017242;28;20431;-71
2022/03/26 04:40:28;;;;;;;60.15;21.75;;;1.10;99.90;;;;;;5018593;28;20067;-71
2022/03/26 04:42:55;;;;;;;68.28;22.60;;;1.00;99.90;;;;;;5024319;28;20498;-73
2022/03/26 04:45:21;;;;;;;64.72;21.77;;;0.90;99.90;;;;;;5019286;28;20046;-69
2022/03/26 04:47:47;;;;;;;63.20;22.58;;;0.90;99.90;;;;;;5013571;28;20034;-73
2022/03/26 04:50:13;;;;;;;57.90;20.70;;;0.90;99.90;;;;;;5015824;28;20053;-71
2022/03/26 04:52:39;;;;;;;64.03;21.50;;;0.90;99.90;;;;;;5012181;28;20140;-73
2022/03/26 04:55:10;;;;;;;63.63;20.65;;;0.80;99.90;;;;;;5018439;28;20034;-73
2022/03/26 04:57:44;;;;;;;59.13;20.90;;;0.80;99.90;;;;;;5011226;28;20063;-72
2022/03/26 05:00:12;;;;;;;61.05;20.50;;;0.80;99.90;;;;;;5012579;28;20113;-73
2022/03/26 05:02:39;;;;;;;67.30;21.92;;;0.70;99.90;;;;;;5015546;28;20034;-72
2022/03/26 05:05:05;;;;;;;58.53;20.42;;;0.80;99.90;;;;;;5023183;28;20045;-71
2022/03/26 05:07:46;;;;;;;67.80;22.10;;;0.80;99.90;;;;;;5011432;28;20477;-72
2022/03/26 05:10:13;;;;;;;61.13;20.73;;;0.80;99.90;;;;;;5009165;28;20025;-73
2022/03/26 05:12:38;;;;;;;70.20;22.88;;;0.80;99.90;;;;;;5009906;28;20030;-72
2022/03/26 05:15:04;;;;;;;61.95;20.92;;;0.80;99.90;;;;;;5009077;28;20030;-72
2022/03/26 05:17:30;;;;;;;60.97;21.73;;;0.80;99.90;;;;;;5015147;28;20046;-72
2022/03/26 05:19:56;;;;;;;69.20;23.35;;;0.80;99.90;;;;;;5008953;28;20025;-71
2022/03/26 05:22:21;;;;;;;65.93;22.67;;;0.80;99.90;;;;;;5022641;28;20034;-73
2022/03/26 05:24:47;;;;;;;67.68;22.38;;;0.80;99.90;;;;;;5029848;28;20044;-73
2022/03/26 05:27:13;;;;;;;65.15;22.45;;;0.80;99.90;;;;;;5017425;28;20080;-71
2022/03/26 05:29:38;;;;;;;69.20;23.58;;;0.80;99.90;;;;;;5014023;28;20050;-72
2022/03/26 05:32:06;;;;;;;71.13;23.35;;;0.80;99.90;;;;;;5012261;28;20026;-73
2022/03/26 05:34:32;;;;;;;66.40;23.45;;;0.80;99.90;;;;;;5011081;28;20038;-73
2022/03/26 05:36:58;;;;;;;65.82;22.98;;;0.80;99.90;;;;;;5016779;28;20075;-72
2022/03/26 05:39:24;;;;;;;65.13;23.95;;;0.90;99.90;;;;;;5023820;28;20042;-69
2022/03/26 05:41:50;;;;;;;60.53;20.80;;;0.90;99.90;;;;;;5010528;28;20080;-73
2022/03/26 05:44:16;;;;;;;62.03;22.98;;;0.90;99.90;;;;;;5015418;28;20104;-72
2022/03/26 05:46:42;;;;;;;65.85;21.58;;;0.90;99.90;;;;;;5011241;28;20129;-74
2022/03/26 05:49:09;;;;;;;61.90;21.92;;;0.80;99.90;;;;;;5012508;28;20448;-72
2022/03/26 05:51:34;;;;;;;64.05;22.00;;;0.90;99.90;;;;;;5009100;28;20057;-73
2022/03/26 05:54:00;;;;;;;60.88;21.48;;;1.00;99.90;;;;;;5008168;28;20065;-72
2022/03/26 05:56:26;;;;;;;64.57;22.05;;;1.00;99.90;;;;;;5007124;28;20046;-67
2022/03/26 05:58:52;;;;;;;66.32;22.60;;;1.10;99.90;;;;;;5011274;28;20109;-72
2022/03/26 06:01:17;;;;;;;68.35;23.23;;;1.10;99.90;;;;;;5014743;28;20030;-73
2022/03/26 06:03:43;;;;;;;66.40;23.58;;;1.30;99.90;;;;;;5014031;28;20054;-76
2022/03/26 06:06:09;;;;;;;65.00;21.33;;;1.40;99.90;;;;;;5012615;28;20042;-72
2022/03/26 06:08:35;;;;;;;59.08;21.40;;;1.30;99.90;;;;;;5009401;28;20022;-72
2022/03/26 06:11:00;;;;;;;60.63;20.73;;;1.30;99.90;;;;;;5010422;28;20026;-71
2022/03/26 06:13:26;;;;;;;57.70;20.80;;;1.30;99.90;;;;;;5011332;28;20034;-70
2022/03/26 06:15:51;;;;;;;60.45;20.52;;;1.40;99.90;;;;;;5010115;28;20076;-72
2022/03/26 06:18:17;;;;;;;65.13;22.60;;;1.50;99.90;;;;;;5010676;28;20029;-72
2022/03/26 06:20:43;;;;;;;65.00;21.33;;;1.60;99.90;;;;;;5011354;28;20468;-72
2022/03/26 06:23:08;;;;;;;58.08;20.15;;;1.80;99.90;;;;;;5011281;28;20034;-71
2022/03/26 06:25:34;;;;;;;64.28;20.52;;;2.00;99.90;;;;;;5009486;28;20042;-71
2022/03/26 06:28:00;;;;;;;56.17;20.90;;;2.20;99.90;;;;;;5009792;28;20152;-71
2022/03/26 06:30:26;;;;;;;58.47;20.90;;;2.40;99.90;;;;;;5010604;28;20112;-71
2022/03/26 06:32:52;;;;;;;50.55;19.38;;;2.60;99.90;;;;;;5009298;28;20476;-71
2022/03/26 06:35:18;;;;;;;61.20;21.45;;;2.70;99.90;;;;;;5010092;28;20046;-71
2022/03/26 06:37:44;;;;;;;68.03;22.92;;;2.90;99.90;;;;;;5009288;28;20108;-71
2022/03/26 06:40:10;;;;;;;57.60;21.27;;;2.90;99.90;;;;;;5009825;28;20101;-72
2022/03/26 06:42:36;;;;;;;57.65;20.20;;;3.10;99.90;;;;;;5009412;28;20473;-71
2022/03/26 06:45:02;;;;;;;63.05;20.67;;;3.20;99.90;;;;;;5011084;28;20041;-71
2022/03/26 06:47:28;;;;;;;64.07;22.02;;;3.30;99.90;;;;;;5012178;28;20044;-70
2022/03/26 06:49:57;;;;;;;60.63;22.08;;;3.40;99.90;;;;;;5010986;28;20072;-71
2022/03/26 06:52:24;;;;;;;56.85;20.77;;;3.60;99.90;;;;;;5010457;28;20032;-71
2022/03/26 06:54:50;;;;;;;55.97;21.25;;;3.80;99.90;;;;;;5010661;28;20618;-71
2022/03/26 06:57:16;;;;;;;61.55;22.25;;;4.00;99.90;;;;;;5010239;28;20457;-72
2022/03/26 06:59:42;;;;;;;59.55;21.95;;;4.20;99.90;;;;;;5008882;28;20104;-71
2022/03/26 07:02:07;;;;;;;58.63;20.70;;;4.30;99.90;;;;;;5009700;28;20042;-70
2022/03/26 07:04:33;;;;;;;59.05;20.85;;;4.60;99.90;;;;;;5011547;28;20485;-67
2022/03/26 07:06:59;;;;;;;59.58;20.85;;;4.80;99.90;;;;;;5011789;28;20038;-68
2022/03/26 07:09:24;;;;;;;56.53;20.63;;;5.00;99.90;;;;;;5024060;28;20034;-68
2022/03/26 07:11:51;;;;;;;62.05;19.67;;;5.20;99.90;;;;;;5016170;28;20031;-68
2022/03/26 07:14:17;;;;;;;60.20;21.58;;;5.40;99.90;;;;;;5009300;28;20534;-67
2022/03/26 07:16:44;;;;;;;56.55;19.98;;;5.70;99.90;;;;;;5008470;28;20033;-68
2022/03/26 07:19:13;;;;;;;53.85;20.35;;;5.80;99.90;;;;;;5008079;28;20112;-68
2022/03/26 07:21:40;;;;;;;57.10;20.27;;;6.10;99.90;;;;;;5009049;28;20091;-67
2022/03/26 07:24:06;;;;;;;56.45;19.48;;;6.40;99.90;;;;;;5011276;28;20050;-67
2022/03/26 07:26:32;;;;;;;56.40;19.52;;;6.60;99.90;;;;;;5007130;28;20069;-66
2022/03/26 07:28:57;;;;;;;55.10;18.88;;;6.90;99.90;;;;;;5009150;28;20034;-67
2022/03/26 07:31:24;;;;;;;54.42;18.65;;;7.10;99.90;;;;;;5011149;28;20449;-67
2022/03/26 07:33:50;;;;;;;51.97;18.48;;;7.30;99.90;;;;;;5007226;28;20431;-68
2022/03/26 07:36:16;;;;;;;56.72;18.50;;;7.40;99.90;;;;;;5006097;28;20044;-67
2022/03/26 07:38:42;;;;;;;52.28;18.70;;;7.60;99.90;;;;;;5007741;28;20038;-68
2022/03/26 07:41:08;;;;;;;54.55;19.17;;;7.70;99.90;;;;;;5018596;28;20468;-68
2022/03/26 07:43:34;;;;;;;48.22;18.08;;;8.00;99.90;;;;;;5016791;28;20037;-67
2022/03/26 07:46:00;;;;;;;54.83;18.98;;;8.10;99.90;;;;;;5009302;28;20069;-68
2022/03/26 07:48:25;;;;;;;53.97;18.92;;;8.30;99.90;;;;;;5009875;28;20034;-68
2022/03/26 07:50:51;;;;;;;48.03;18.27;;;8.50;99.90;;;;;;5019598;28;20041;-67
2022/03/26 07:53:17;;;;;;;55.30;19.13;;;8.70;99.90;;;;;;5029726;28;20027;-67
2022/03/26 07:55:43;;;;;;;50.45;19.60;;;8.90;99.90;;;;;;5028544;28;20503;-67
2022/03/26 07:58:09;;;;;;;48.03;19.45;;;9.10;99.90;;;;;;5019776;28;20072;-68
2022/03/26 08:00:35;;;;;;;49.03;18.50;;;9.30;99.90;;;;;;5015079;28;20042;-66
2022/03/26 08:03:01;;;;;;;49.85;19.02;;;9.40;99.90;;;;;;5014631;28;20041;-67
2022/03/26 08:05:27;;;;;;;48.13;17.90;;;9.40;99.90;;;;;;5009339;28;20056;-67
2022/03/26 08:07:52;;;;;;;52.42;19.67;;;9.60;99.90;;;;;;5015862;28;20511;-67
2022/03/26 08:10:18;;;;;;;49.28;19.50;;;9.80;99.90;;;;;;5022208;28;20040;-67
2022/03/26 08:12:44;;;;;;;52.30;20.20;;;9.90;99.90;;;;;;5012005;28;20384;-66
2022/03/26 08:15:10;;;;;;;49.20;18.50;;;10.00;99.60;;;;;;5012899;28;20030;-67
2022/03/26 08:17:35;;;;;;;58.97;21.50;;;10.10;99.90;;;;;;5011121;28;20057;-65
2022/03/26 08:20:01;;;;;;;57.20;20.25;;;10.10;98.00;;;;;;5020370;28;20041;-68
2022/03/26 08:22:27;;;;;;;51.88;18.27;;;10.20;96.80;;;;;;5008304;28;20113;-68
2022/03/26 08:24:53;;;;;;;49.55;19.77;;;10.30;96.00;;;;;;5007355;28;20092;-68
2022/03/26 08:27:19;;;;;;;51.60;20.13;;;10.40;95.70;;;;;;5016372;28;20509;-68
2022/03/26 08:29:46;;;;;;;54.97;19.73;;;10.40;95.40;;;;;;5013239;28;20053;-68
2022/03/26 08:32:12;;;;;;;52.28;19.33;;;10.50;96.10;;;;;;5013960;28;20527;-67
2022/03/26 08:34:37;;;;;;;57.67;19.40;;;10.70;94.90;;;;;;5018481;28;20049;-67
2022/03/26 08:37:03;;;;;;;52.60;20.13;;;10.80;95.40;;;;;;5008884;28;20117;-67
2022/03/26 08:39:29;;;;;;;55.00;20.45;;;11.00;94.40;;;;;;5002793;28;20826;-71
2022/03/26 08:41:55;;;;;;;55.30;20.13;;;11.00;94.00;;;;;;4991584;28;20047;-69
2022/03/26 08:44:20;;;;;;;54.70;20.65;;;11.10;93.30;;;;;;5001230;28;20042;-68
2022/03/26 08:46:46;;;;;;;51.90;19.65;;;11.30;92.70;;;;;;5016082;28;20488;-71
2022/03/26 08:49:12;;;;;;;51.53;19.65;;;11.40;92.00;;;;;;4996057;28;20622;-69
2022/03/26 08:51:38;;;;;;;64.95;21.42;;;11.50;92.00;;;;;;5008556;28;20109;-67
2022/03/26 08:54:03;;;;;;;54.58;20.02;;;11.50;92.30;;;;;;5011723;28;20046;-70
2022/03/26 08:56:29;;;;;;;57.45;20.70;;;11.80;91.50;;;;;;5011333;28;20030;-69
2022/03/26 08:58:55;;;;;;;58.33;21.10;;;12.10;91.80;;;;;;5010488;28;20198;-69
2022/03/26 09:01:21;;;;;;;54.95;19.75;;;12.50;93.50;;;;;;5011914;28;20478;-69
2022/03/26 09:03:50;;;;;;;50.58;19.85;;;12.70;88.60;;;;;;5031268;28;20108;-70
2022/03/26 09:06:16;;;;;;;54.20;21.10;;;12.80;91.10;;;;;;5032418;28;20124;-69
2022/03/26 09:08:41;;;;;;;58.90;21.75;;;13.10;87.30;;;;;;5015994;28;20108;-70
2022/03/26 09:11:07;;;;;;;57.38;21.17;;;13.10;84.40;;;;;;5012129;28;20030;-70
2022/03/26 09:13:33;;;;;;;60.28;22.63;;;13.20;83.50;;;;;;5012746;28;20099;-68
2022/03/26 09:15:59;;;;;;;53.60;20.83;;;13.10;81.00;;;;;;5011900;28;20030;-69
2022/03/26 09:18:26;;;;;;;59.22;22.83;;;13.30;82.80;;;;;;5010764;28;20034;-69
2022/03/26 09:20:52;;;;;;;56.67;22.60;;;13.60;80.30;;;;;;5011770;28;20022;-70
2022/03/26 09:23:18;;;;;;;58.25;22.33;;;13.90;77.40;;;;;;5012280;28;20037;-69
2022/03/26 09:25:44;;;;;;;65.60;23.08;;;14.00;77.40;;;;;;5011127;28;20044;-68
2022/03/26 09:28:09;;;;;;;58.67;23.33;;;14.00;76.20;;;;;;5011628;28;20393;-69
2022/03/26 09:30:36;;;;;;;58.90;22.60;;;14.30;74.70;;;;;;5010470;28;20061;-69
2022/03/26 09:33:03;;;;;;;59.47;21.70;;;14.40;70.30;;;;;;5011785;28;20034;-69
2022/03/26 09:35:29;;;;;;;64.07;23.13;;;14.60;73.70;;;;;;5012235;28;20038;-70
2022/03/26 09:37:55;;;;;;;57.97;23.42;;;14.80;68.80;;;;;;5011280;28;20032;-69
2022/03/26 09:40:22;;;;;;;59.22;23.27;;;14.60;66.40;;;;;;5017858;28;20395;-69
2022/03/26 09:42:49;;;;;;;56.45;22.45;;;14.60;68.20;;;;;;5013273;28;20037;-67
2022/03/26 09:45:16;;;;;;;66.85;24.88;;;14.70;66.00;;;;;;5012062;28;20046;-69
2022/03/26 09:47:42;;;;;;;55.58;23.42;;;14.90;67.70;;;;;;5010291;28;20468;-68
2022/03/26 09:50:09;;;;;;;54.55;23.02;;;15.10;62.40;;;;;;4996253;28;20502;-70
2022/03/26 09:52:36;;;;;;;58.97;22.20;;;15.20;60.80;;;;;;5016299;28;20040;-68
2022/03/26 09:55:03;;;;;;;63.40;23.42;;;15.20;59.50;;;;;;5030701;28;20032;-69
2022/03/26 09:57:29;;;;;;;58.15;23.60;;;15.50;60.00;;;;;;5031581;28;20022;-69
2022/03/26 09:59:56;;;;;;;63.20;25.13;;;15.80;59.40;;;;;;5025326;28;20196;-68
2022/03/26 10:02:22;;;;;;;54.35;23.85;;;16.20;56.10;;;;;;5011163;28;20029;-68
2022/03/26 10:04:47;;;;;;;51.20;21.90;;;16.30;55.50;;;;;;5010826;28;20089;-69
2022/03/26 10:07:13;;;;;;;70.75;23.63;;;16.50;55.70;;;;;;5011620;28;20037;-69
2022/03/26 10:09:45;;;;;;;55.67;21.23;;;16.40;51.70;;;;;;5011253;28;20096;-67
2022/03/26 10:12:19;;;;;;;49.60;21.02;;;16.10;50.20;;;;;;5011535;28;20022;-69
2022/03/26 10:14:52;;;;;;;65.88;21.10;;;16.10;52.20;;;;;;5010669;28;20544;-67
2022/03/26 10:17:23;;;;;;;45.08;19.50;;;16.20;49.30;;;;;;5011504;28;20034;-69
2022/03/26 10:19:54;;;;;;;51.10;19.40;;;16.10;50.10;;;;;;5010318;28;20034;-69
2022/03/26 10:22:36;;;;;;;44.22;18.33;;;16.00;46.80;;;;;;5011318;28;20105;-69
2022/03/26 10:25:08;;;;;;;51.10;19.15;;;16.00;47.70;;;;;;5010014;28;20101;-68
2022/03/26 10:27:45;;;;;;;44.63;19.13;;;16.20;46.30;;;;;;5009775;28;20046;-69
2022/03/26 10:30:12;;;;;;;52.70;18.95;;;16.20;46.70;;;;;;5011388;28;20473;-68
2022/03/26 10:32:43;;;;;;;56.80;20.52;;;16.10;45.80;;;;;;5010927;28;20049;-69
2022/03/26 10:35:08;;;;;;;50.95;19.58;;;15.90;46.10;;;;;;5010643;28;20077;-68
2022/03/26 10:38:03;;;;;;;46.10;18.27;;;16.20;47.10;;;;;;5011118;28;20127;-69
2022/03/26 10:40:30;;;;;;;52.78;18.98;;;16.60;46.20;;;;;;5010598;28;20516;-69
2022/03/26 10:43:10;;;;;;;48.90;18.10;;;16.70;45.30;;;;;;5009808;28;20073;-69
2022/03/26 10:45:46;;;;;;;47.80;17.77;;;16.60;45.90;;;;;;5011032;28;20117;-68
2022/03/26 10:48:12;;;;;;;42.75;18.70;;;16.80;46.70;;;;;;5010914;28;20268;-68
2022/03/26 10:50:38;;;;;;;50.28;18.63;;;16.80;45.00;;;;;;5009286;28;20132;-70
2022/03/26 10:53:11;;;;;;;44.58;18.50;;;16.80;44.50;;;;;;5009584;28;20022;-67
2022/03/26 10:55:39;;;;;;;44.35;18.58;;;16.70;43.90;;;;;;5010256;28;20036;-68
2022/03/26 10:58:06;;;;;;;44.80;17.92;;;16.70;44.00;;;;;;5017747;28;20061;-68
2022/03/26 11:00:32;;;;;;;48.15;18.27;;;16.70;43.70;;;;;;5017486;28;20206;-69
2022/03/26 11:02:58;;;;;;;46.60;18.92;;;17.00;45.50;;;;;;5010356;28;20057;-68
2022/03/26 11:05:24;;;;;;;41.17;18.05;;;17.20;44.80;;;;;;5009165;28;20050;-68
2022/03/26 11:07:51;;;;;;;39.63;18.65;;;17.70;43.80;;;;;;5009267;28;20026;-69
2022/03/26 11:10:17;;;;;;;45.15;18.08;;;17.70;43.30;;;;;;5011465;28;20490;-69
2022/03/26 11:12:45;;;;;;;47.22;19.90;;;17.60;44.10;;;;;;5036103;28;20150;-69
2022/03/26 11:15:18;;;;;;;48.30;19.52;;;17.40;42.20;;;;;;5005941;28;20044;-68
2022/03/26 11:17:58;;;;;;;50.63;19.40;;;17.30;42.00;;;;;;5010994;28;20025;-68
2022/03/26 11:20:45;;;;;;;49.78;20.35;;;17.40;42.10;;;;;;5009348;28;20026;-69
2022/03/26 11:23:23;;;;;;;47.53;20.15;;;17.70;41.80;;;;;;5009163;28;20053;-69
2022/03/26 11:26:16;;;;;;;42.53;18.60;;;18.00;41.20;;;;;;5010624;28;20034;-68
2022/03/26 11:28:54;;;;;;;45.67;19.60;;;17.70;41.80;;;;;;5008728;28;20057;-69
2022/03/26 11:31:46;;;;;;;50.08;18.98;;;17.40;43.00;;;;;;5025679;28;20127;-69
2022/03/26 11:34:12;;;;;;;45.85;19.13;;;17.80;43.70;;;;;;5010743;28;20500;-70
2022/03/26 11:36:37;;;;;;;52.88;18.77;;;18.10;42.20;;;;;;5007888;28;20040;-69
2022/03/26 11:39:15;;;;;;;47.22;18.45;;;18.00;42.20;;;;;;5008244;28;20495;-69
2022/03/26 11:41:42;;;;;;;43.05;18.48;;;18.30;42.20;;;;;;5008952;28;20042;-68
2022/03/26 11:44:09;;;;;;;49.70;18.90;;;18.60;41.00;;;;;;5008500;28;20017;-69
2022/03/26 11:52:31;;;;;;;41.80;17.63;;;18.60;39.40;;;;;;5003904;28;20092;-69
2022/03/26 11:55:24;;;;;;;42.10;18.85;;;18.60;41.10;;;;;;5008152;28;20433;-69
2022/03/26 11:58:26;;;;;;;40.97;17.83;;;18.60;40.10;;;;;;5006633;28;20026;-69
2022/03/26 12:01:00;;;;;;;43.20;17.13;;;18.50;37.80;;;;;;5008688;28;20026;-69
2022/03/26 12:03:27;;;;;;;49.38;17.30;;;18.70;39.00;;;;;;5008588;28;20056;-68
2022/03/26 12:08:54;;;;;;;45.33;17.35;;;19.20;38.50;;;;;;5009264;28;20080;-69
2022/03/26 12:11:27;;;;;;;48.63;17.35;;;18.70;39.30;;;;;;5019196;28;20041;-69
2022/03/26 12:14:07;;;;;;;40.13;17.35;;;18.70;38.50;;;;;;5011537;28;20649;-69
2022/03/26 12:16:52;;;;;;;38.58;17.70;;;18.30;37.40;;;;;;5008599;28;20034;-70
2022/03/26 12:19:39;;;;;;;37.45;17.02;;;18.30;38.90;;;;;;5008697;28;20095;-70
2022/03/26 12:22:23;;;;;;;37.95;17.67;;;18.40;39.80;;;;;;5009410;28;20046;-68
2022/03/26 12:24:50;;;;;;;38.65;16.17;;;18.80;40.90;;;;;;5012879;28;20384;-66
2022/03/26 12:27:17;;;;;;;39.67;17.75;;;19.40;41.70;;;;;;5016518;28;20037;-65
2022/03/26 12:29:43;;;;;;;36.67;17.05;;;19.10;37.60;;;;;;5017591;28;20053;-66
2022/03/26 12:32:09;;;;;;;38.75;17.70;;;18.80;38.80;;;;;;5014873;28;20029;-65
2022/03/26 12:35:10;;;;;;;42.50;17.60;;;18.90;38.90;;;;;;5017874;28;20041;-66
2022/03/26 12:37:37;;;;;;;39.40;17.27;;;18.90;39.10;;;;;;4949446;29;20375;-65
2022/03/26 12:40:07;;;;;;;37.22;16.98;;;19.30;41.10;;;;;;4998538;28;20120;-65
2022/03/26 12:42:33;;;;;;;37.90;15.93;;;19.90;39.80;;;;;;5011927;28;20030;-66